createdAt,value
2018-09-08T00:01:40.398Z,15.74
2018-09-08T00:04:09.767Z,15.73
2018-09-08T00:06:39.157Z,15.56
2018-09-08T00:09:09.994Z,15.56
2018-09-08T00:11:40.939Z,15.54
2018-09-08T00:14:10.481Z,15.56
2018-09-08T00:16:45.710Z,15.49
2018-09-08T00:19:19.874Z,15.44
2018-09-08T00:21:54.016Z,15.46
2018-09-08T00:24:28.507Z,15.35
2018-09-08T00:26:57.473Z,15.26
2018-09-08T00:29:31.586Z,15.26
2018-09-08T00:32:06.218Z,15.30
2018-09-08T00:34:37.794Z,15.28
2018-09-08T00:37:08.655Z,15.23
2018-09-08T00:39:39.510Z,15.20
2018-09-08T00:42:11.310Z,15.15
2018-09-08T00:44:40.723Z,15.12
2018-09-08T00:47:10.773Z,15.12
2018-09-08T00:49:40.473Z,15.14
2018-09-08T00:52:09.910Z,15.20
2018-09-08T00:54:39.225Z,15.11
2018-09-08T00:57:10.351Z,15.21
2018-09-08T00:59:40.406Z,15.32
2018-09-08T01:02:10.724Z,15.24
2018-09-08T01:07:40.573Z,15.20
2018-09-08T01:10:13.961Z,14.96
2018-09-08T01:12:43.448Z,14.82
2018-09-08T01:15:16.476Z,14.86
2018-09-08T01:17:46.667Z,14.95
2018-09-08T01:20:16.904Z,14.95
2018-09-08T01:22:46.884Z,14.77
2018-09-08T01:25:16.911Z,14.57
2018-09-08T01:27:49.135Z,14.57
2018-09-08T01:30:19.341Z,14.35
2018-09-08T01:32:50.171Z,14.11
2018-09-08T01:35:27.317Z,14.05
2018-09-08T01:37:56.769Z,14.03
2018-09-08T01:40:27.679Z,13.98
2018-09-08T01:42:58.340Z,13.89
2018-09-08T01:45:28.158Z,13.79
2018-09-08T01:47:57.646Z,13.69
2018-09-08T01:50:27.367Z,13.62
2018-09-08T01:52:56.950Z,13.68
2018-09-08T01:55:28.335Z,13.64
2018-09-08T01:57:57.875Z,13.74
2018-09-08T02:00:27.441Z,13.46
2018-09-08T02:02:57.321Z,13.88
2018-09-08T02:05:28.080Z,13.84
2018-09-08T02:07:57.747Z,13.88
2018-09-08T02:10:27.277Z,13.76
2018-09-08T02:12:58.323Z,13.79
2018-09-08T02:15:28.480Z,13.83
2018-09-08T02:17:58.969Z,13.83
2018-09-08T02:20:29.300Z,13.81
2018-09-08T02:23:00.989Z,13.71
2018-09-08T02:25:31.365Z,13.61
2018-09-08T02:28:01.386Z,13.64
2018-09-08T02:30:32.494Z,13.61
2018-09-08T02:33:02.518Z,13.68
2018-09-08T02:35:33.190Z,13.67
2018-09-08T02:38:03.620Z,13.63
2018-09-08T02:40:33.083Z,13.82
2018-09-08T02:43:06.464Z,13.77
2018-09-08T02:45:37.645Z,13.58
2018-09-08T02:48:10.069Z,13.46
2018-09-08T02:50:40.183Z,13.40
2018-09-08T02:53:10.070Z,13.49
2018-09-08T02:55:38.404Z,13.55
2018-09-08T02:58:06.862Z,13.38
2018-09-08T03:00:35.249Z,13.40
2018-09-08T03:03:03.206Z,13.53
2018-09-08T03:05:31.157Z,13.53
2018-09-08T03:07:58.970Z,13.69
2018-09-08T03:10:27.369Z,13.71
2018-09-08T03:12:55.645Z,13.55
2018-09-08T03:15:23.769Z,13.66
2018-09-08T03:17:52.537Z,13.63
2018-09-08T03:20:20.480Z,13.65
2018-09-08T03:22:48.552Z,13.67
2018-09-08T03:25:16.317Z,13.65
2018-09-08T03:27:44.391Z,13.61
2018-09-08T03:30:14.682Z,13.69
2018-09-08T03:32:45.259Z,13.83
2018-09-08T03:35:13.012Z,13.89
2018-09-08T03:37:40.828Z,13.79
2018-09-08T03:40:08.647Z,13.51
2018-09-08T03:42:36.710Z,13.53
2018-09-08T03:45:05.888Z,13.60
2018-09-08T03:47:35.068Z,13.71
2018-09-08T03:50:02.789Z,13.72
2018-09-08T03:52:30.904Z,13.68
2018-09-08T03:54:59.522Z,13.54
2018-09-08T03:57:27.536Z,13.75
2018-09-08T03:59:55.242Z,13.50
2018-09-08T04:02:23.259Z,13.65
2018-09-08T04:04:52.564Z,13.72
2018-09-08T04:07:21.894Z,13.80
2018-09-08T04:09:51.155Z,13.87
2018-09-08T04:12:21.249Z,13.84
2018-09-08T04:14:50.695Z,13.85
2018-09-08T04:17:20.332Z,13.79
2018-09-08T04:19:49.660Z,13.61
2018-09-08T04:22:23.687Z,13.48
2018-09-08T04:24:53.171Z,13.65
2018-09-08T04:27:22.895Z,13.72
2018-09-08T04:29:52.282Z,13.64
2018-09-08T04:32:21.876Z,13.75
2018-09-08T04:34:52.281Z,13.73
2018-09-08T04:37:22.944Z,13.49
2018-09-08T04:39:52.609Z,13.39
2018-09-08T04:42:22.319Z,13.21
2018-09-08T04:44:52.281Z,13.17
2018-09-08T04:47:21.803Z,13.12
2018-09-08T04:49:51.603Z,13.06
2018-09-08T04:52:21.373Z,13.15
2018-09-08T04:54:50.863Z,13.07
2018-09-08T04:57:21.202Z,12.95
2018-09-08T04:59:50.813Z,12.92
2018-09-08T05:02:22.851Z,13.06
2018-09-08T05:04:52.687Z,13.01
2018-09-08T05:07:22.270Z,12.93
2018-09-08T05:09:51.858Z,12.92
2018-09-08T05:12:21.907Z,13.05
2018-09-08T05:14:52.227Z,12.98
2018-09-08T05:17:21.930Z,12.99
2018-09-08T05:19:51.659Z,12.98
2018-09-08T05:22:21.263Z,13.03
2018-09-08T05:24:50.645Z,13.06
2018-09-08T05:27:21.218Z,13.08
2018-09-08T05:29:53.757Z,13.08
2018-09-08T05:32:24.773Z,13.15
2018-09-08T05:34:54.432Z,13.21
2018-09-08T05:37:23.980Z,13.18
2018-09-08T05:39:54.266Z,12.76
2018-09-08T05:42:25.623Z,13.35
2018-09-08T05:44:55.267Z,13.62
2018-09-08T05:47:24.852Z,13.82
2018-09-08T05:49:55.047Z,14.04
2018-09-08T05:52:25.075Z,14.03
2018-09-08T05:54:55.181Z,14.16
2018-09-08T05:57:28.620Z,14.20
2018-09-08T05:59:58.122Z,14.23
2018-09-08T06:02:27.702Z,14.31
2018-09-08T06:04:57.583Z,14.60
2018-09-08T06:07:26.996Z,14.60
2018-09-08T06:09:56.378Z,14.79
2018-09-08T06:12:34.586Z,15.12
2018-09-08T06:15:06.023Z,15.23
2018-09-08T06:17:35.601Z,15.43
2018-09-08T06:20:05.405Z,15.80
2018-09-08T06:22:34.721Z,16.19
2018-09-08T06:27:46.511Z,16.70
2018-09-08T06:30:17.392Z,16.63
2018-09-08T06:32:46.762Z,16.97
2018-09-08T06:35:16.903Z,17.28
2018-09-08T06:37:46.417Z,17.61
2018-09-08T06:40:16.889Z,17.48
2018-09-08T06:42:46.771Z,17.52
2018-09-08T06:45:20.997Z,17.91
2018-09-08T06:47:50.301Z,18.13
2018-09-08T06:50:20.086Z,18.51
2018-09-08T06:52:50.480Z,18.67
2018-09-08T06:55:19.751Z,19.06
2018-09-08T06:57:49.834Z,19.06
2018-09-08T07:00:25.164Z,18.87
2018-09-08T07:02:54.746Z,18.94
2018-09-08T07:05:25.376Z,19.14
2018-09-08T07:07:55.281Z,19.54
2018-09-08T07:10:24.810Z,19.09
2018-09-08T07:12:54.813Z,19.31
2018-09-08T07:15:25.337Z,19.60
2018-09-08T07:17:56.597Z,19.59
2018-09-08T07:20:27.869Z,20.02
2018-09-08T07:22:57.567Z,19.88
2018-09-08T07:25:27.747Z,19.86
2018-09-08T07:27:58.559Z,19.73
2018-09-08T07:30:29.318Z,20.16
2018-09-08T07:33:00.898Z,20.04
2018-09-08T07:35:32.140Z,19.47
2018-09-08T07:38:01.544Z,19.10
2018-09-08T07:40:33.097Z,19.30
2018-09-08T07:43:03.184Z,19.70
2018-09-08T07:45:33.379Z,20.30
2018-09-08T07:48:03.324Z,20.60
2018-09-08T07:50:34.495Z,20.70
2018-09-08T07:53:06.668Z,20.04
2018-09-08T07:55:37.362Z,20.00
2018-09-08T07:58:08.652Z,20.38
2018-09-08T08:00:46.859Z,20.45
2018-09-08T08:03:18.102Z,20.64
2018-09-08T08:05:54.377Z,20.23
2018-09-08T08:08:26.470Z,18.99
2018-09-08T08:11:00.916Z,19.23
2018-09-08T08:13:48.378Z,19.42
2018-09-08T08:16:19.629Z,20.20
2018-09-08T08:18:49.540Z,20.55
2018-09-08T08:21:18.980Z,20.61
2018-09-08T08:23:51.403Z,20.84
2018-09-08T08:26:28.246Z,21.11
2018-09-08T08:28:58.117Z,21.13
2018-09-08T08:31:28.146Z,20.91
2018-09-08T08:33:59.378Z,20.14
2018-09-08T08:36:28.860Z,19.76
2018-09-08T08:38:59.419Z,20.10
2018-09-08T08:41:29.853Z,20.55
2018-09-08T08:46:32.594Z,20.75
2018-09-08T08:49:16.570Z,21.16
2018-09-08T08:51:59.235Z,21.01
2018-09-08T08:54:33.820Z,21.10
2018-09-08T08:57:04.720Z,20.27
2018-09-08T08:59:35.245Z,20.96
2018-09-08T09:02:05.601Z,20.99
2018-09-08T09:04:36.817Z,21.34
2018-09-08T09:07:15.550Z,21.61
2018-09-08T09:09:52.588Z,21.74
2018-09-08T09:12:25.709Z,21.82
2018-09-08T09:14:55.193Z,22.05
2018-09-08T09:17:26.561Z,22.11
2018-09-08T09:23:18.611Z,21.66
2018-09-08T09:25:48.423Z,21.36
2018-09-08T09:28:19.344Z,21.79
2018-09-08T09:30:50.179Z,21.80
2018-09-08T09:33:20.855Z,22.56
2018-09-08T09:35:50.374Z,22.89
2018-09-08T09:38:20.180Z,23.81
2018-09-08T09:40:50.327Z,24.53
2018-09-08T09:43:23.087Z,24.69
2018-09-08T09:45:53.137Z,24.54
2018-09-08T09:48:24.299Z,23.77
2018-09-08T09:50:54.791Z,23.83
2018-09-08T09:53:24.457Z,23.57
2018-09-08T09:55:56.792Z,24.07
2018-09-08T09:58:26.434Z,24.27
2018-09-08T10:01:08.874Z,24.60
2018-09-08T10:03:41.353Z,25.06
2018-09-08T10:06:13.333Z,25.69
2018-09-08T10:08:44.414Z,25.56
2018-09-08T10:11:16.153Z,25.88
2018-09-08T10:13:50.170Z,26.06
2018-09-08T10:16:20.347Z,25.86
2018-09-08T10:18:53.380Z,25.97
2018-09-08T10:21:24.979Z,25.07
2018-09-08T10:24:05.154Z,24.74
2018-09-08T10:26:34.053Z,24.57
2018-09-08T10:29:15.013Z,24.19
2018-09-08T10:31:47.123Z,23.90
2018-09-08T10:34:17.739Z,24.94
2018-09-08T10:36:52.466Z,25.64
2018-09-08T10:39:37.434Z,25.91
2018-09-08T10:42:09.117Z,26.51
2018-09-08T10:44:40.517Z,26.86
2018-09-08T10:47:14.556Z,27.29
2018-09-08T10:49:45.971Z,27.33
2018-09-08T10:52:25.675Z,27.50
2018-09-08T10:54:55.439Z,27.26
2018-09-08T10:57:25.652Z,27.51
2018-09-08T10:59:56.868Z,27.02
2018-09-08T11:02:28.668Z,26.75
2018-09-08T11:04:59.975Z,26.84
2018-09-08T11:07:30.716Z,26.20
2018-09-08T11:10:03.821Z,26.74
2018-09-08T11:12:38.164Z,26.96
2018-09-08T11:15:19.733Z,26.89
2018-09-08T11:17:57.773Z,26.68
2018-09-08T11:20:36.454Z,26.17
2018-09-08T11:23:07.772Z,25.95
2018-09-08T11:25:43.472Z,25.26
2018-09-08T11:28:17.710Z,24.45
2018-09-08T11:30:48.159Z,24.14
2018-09-08T11:33:20.161Z,23.94
2018-09-08T11:35:50.761Z,24.68
2018-09-08T11:38:22.111Z,25.48
2018-09-08T11:40:56.654Z,26.02
2018-09-08T11:43:27.185Z,26.68
2018-09-08T11:45:58.359Z,27.02
2018-09-08T11:48:28.340Z,27.07
2018-09-08T11:50:59.339Z,26.89
2018-09-08T11:53:34.019Z,27.38
2018-09-08T11:56:04.392Z,27.45
2018-09-08T12:01:19.733Z,27.76
2018-09-08T12:03:51.724Z,27.90
2018-09-08T12:06:22.039Z,28.27
2018-09-08T12:08:52.638Z,28.19
2018-09-08T12:11:27.428Z,28.02
2018-09-08T12:13:58.379Z,27.52
2018-09-08T12:16:30.341Z,26.79
2018-09-08T12:22:07.601Z,25.72
2018-09-08T12:24:38.210Z,25.50
2018-09-08T12:27:08.878Z,25.55
2018-09-08T12:29:40.938Z,26.29
2018-09-08T12:32:14.383Z,26.11
2018-09-08T12:40:23.341Z,27.84
2018-09-08T12:45:38.478Z,28.11
2018-09-08T12:48:16.387Z,28.42
2018-09-08T12:51:03.487Z,28.84
2018-09-08T12:53:34.641Z,28.23
2018-09-08T12:58:37.746Z,27.06
2018-09-08T13:01:08.142Z,26.76
2018-09-08T13:03:38.612Z,26.84
2018-09-08T13:06:09.865Z,27.04
2018-09-08T13:08:41.440Z,26.83
2018-09-08T13:11:11.513Z,26.62
2018-09-08T13:13:42.389Z,26.45
2018-09-08T13:16:14.573Z,26.66
2018-09-08T13:18:51.862Z,26.65
2018-09-08T13:21:23.979Z,26.15
2018-09-08T13:23:58.337Z,25.73
2018-09-08T13:26:29.191Z,25.62
2018-09-08T13:28:58.691Z,25.64
2018-09-08T13:31:29.692Z,25.33
2018-09-08T13:34:00.504Z,25.44
2018-09-08T13:36:31.905Z,25.90
2018-09-08T13:39:02.461Z,25.92
2018-09-08T13:41:32.142Z,25.86
2018-09-08T13:44:01.451Z,25.71
2018-09-08T13:46:32.457Z,25.65
2018-09-08T13:49:01.896Z,25.66
2018-09-08T13:51:31.771Z,25.80
2018-09-08T13:54:07.304Z,26.05
2018-09-08T13:56:38.669Z,25.73
2018-09-08T13:59:13.604Z,25.47
2018-09-08T14:01:43.313Z,25.28
2018-09-08T14:04:13.245Z,24.85
2018-09-08T14:06:43.228Z,24.76
2018-09-08T14:09:12.534Z,24.70
2018-09-08T14:11:42.339Z,24.40
2018-09-08T14:14:12.317Z,24.48
2018-09-08T14:16:44.447Z,24.66
2018-09-08T14:19:19.758Z,24.97
2018-09-08T14:21:53.034Z,25.21
2018-09-08T14:24:25.367Z,25.16
2018-09-08T14:26:55.069Z,25.01
2018-09-08T14:29:24.389Z,24.93
2018-09-08T14:31:59.822Z,24.85
2018-09-08T14:34:39.279Z,24.69
2018-09-08T14:37:13.446Z,22.76
2018-09-08T14:39:44.829Z,24.63
2018-09-08T14:42:15.164Z,24.83
2018-09-08T14:44:46.932Z,24.79
2018-09-08T14:47:17.389Z,25.13
2018-09-08T14:49:52.227Z,25.20
2018-09-08T14:52:21.768Z,25.14
2018-09-08T14:54:52.141Z,24.96
2018-09-08T14:57:25.022Z,24.98
2018-09-08T14:59:54.790Z,24.89
2018-09-08T15:02:24.319Z,24.89
2018-09-08T15:04:55.157Z,24.80
2018-09-08T15:07:26.430Z,24.71
2018-09-08T15:09:56.145Z,24.82
2018-09-08T15:12:29.604Z,24.77
2018-09-08T15:15:00.099Z,24.81
2018-09-08T15:17:29.613Z,24.80
2018-09-08T15:19:58.959Z,24.72
2018-09-08T15:22:28.461Z,24.74
2018-09-08T15:24:58.230Z,24.94
2018-09-08T15:27:28.304Z,24.79
2018-09-08T15:29:58.611Z,24.60
2018-09-08T15:32:32.601Z,24.52
2018-09-08T15:35:06.287Z,24.40
2018-09-08T15:37:35.641Z,24.28
2018-09-08T15:40:07.045Z,24.28
2018-09-08T15:42:36.912Z,24.28
2018-09-08T15:45:08.682Z,24.30
2018-09-08T15:47:38.243Z,24.32
2018-09-08T15:50:08.443Z,24.30
2018-09-08T15:52:40.320Z,24.07
2018-09-08T15:55:10.432Z,24.15
2018-09-08T15:57:39.789Z,24.21
2018-09-08T16:00:10.202Z,24.19
2018-09-08T16:02:40.258Z,23.99
2018-09-08T16:05:11.797Z,23.82
2018-09-08T16:07:44.071Z,23.59
2018-09-08T16:10:14.661Z,23.66
2018-09-08T16:12:44.023Z,23.63
2018-09-08T16:15:16.709Z,23.70
2018-09-08T16:17:47.443Z,23.60
2018-09-08T16:20:16.771Z,23.59
2018-09-08T16:22:50.212Z,23.73
2018-09-08T16:25:20.381Z,23.78
2018-09-08T16:27:51.095Z,23.72
2018-09-08T16:30:23.844Z,23.73
2018-09-08T16:32:53.658Z,23.62
2018-09-08T16:35:32.021Z,23.44
2018-09-08T16:38:03.665Z,23.22
2018-09-08T16:40:47.057Z,23.30
2018-09-08T16:43:18.064Z,23.35
2018-09-08T16:45:48.611Z,23.40
2018-09-08T16:48:21.022Z,23.39
2018-09-08T16:50:52.382Z,23.43
2018-09-08T16:53:21.816Z,23.51
2018-09-08T16:55:54.613Z,23.44
2018-09-08T16:58:24.711Z,23.31
2018-09-08T17:00:58.337Z,23.23
2018-09-08T17:03:29.445Z,23.07
2018-09-08T17:06:05.511Z,23.09
2018-09-08T17:08:35.229Z,22.70
2018-09-08T17:11:08.720Z,22.91
2018-09-08T17:13:38.219Z,22.97
2018-09-08T17:16:10.179Z,22.96
2018-09-08T17:18:42.037Z,22.84
2018-09-08T17:21:14.099Z,22.76
2018-09-08T17:23:43.801Z,22.77
2018-09-08T17:26:14.100Z,22.62
2018-09-08T17:28:44.610Z,22.29
2018-09-08T17:31:16.761Z,22.44
2018-09-08T17:33:52.551Z,22.48
2018-09-08T17:36:22.715Z,22.51
2018-09-08T17:38:53.532Z,22.38
2018-09-08T17:41:24.755Z,22.41
2018-09-08T17:43:59.719Z,22.47
2018-09-08T17:46:29.569Z,22.53
2018-09-08T17:48:59.764Z,22.53
2018-09-08T17:51:32.445Z,22.49
2018-09-08T17:54:02.674Z,22.55
2018-09-08T17:56:31.974Z,22.57
2018-09-08T17:59:01.630Z,22.55
2018-09-08T18:01:31.356Z,22.53
2018-09-08T18:04:01.920Z,22.51
2018-09-08T18:06:31.461Z,22.48
2018-09-08T18:09:01.205Z,22.44
2018-09-08T18:11:33.971Z,22.35
2018-09-08T18:14:03.683Z,22.31
2018-09-08T18:16:36.557Z,22.37
2018-09-08T18:19:06.525Z,22.46
2018-09-08T18:21:37.050Z,22.53
2018-09-08T18:24:07.884Z,22.41
2018-09-08T18:26:37.583Z,22.36
2018-09-08T18:29:08.185Z,22.14
2018-09-08T18:31:39.721Z,22.46
2018-09-08T18:34:09.367Z,22.54
2018-09-08T18:36:40.978Z,22.57
2018-09-08T18:39:13.659Z,22.54
2018-09-08T18:41:46.712Z,22.53
2018-09-08T18:44:16.471Z,22.54
2018-09-08T18:46:47.384Z,22.54
2018-09-08T18:49:17.342Z,22.63
2018-09-08T18:51:47.623Z,22.71
2018-09-08T18:54:18.047Z,22.80
2018-09-08T18:56:55.350Z,22.77
2018-09-08T18:59:24.970Z,22.76
2018-09-08T19:02:03.710Z,22.73
2018-09-08T19:04:36.823Z,22.69
2018-09-08T19:07:08.468Z,22.69
2018-09-08T19:09:39.609Z,22.71
2018-09-08T19:14:53.609Z,22.72
2018-09-08T19:17:27.873Z,22.75
2018-09-08T19:20:02.620Z,22.67
2018-09-08T19:25:08.472Z,22.51
2018-09-08T19:27:39.531Z,22.31
2018-09-08T19:30:21.058Z,22.19
2018-09-08T19:32:51.456Z,22.19
2018-09-08T19:35:32.222Z,22.24
2018-09-08T19:38:03.664Z,22.25
2018-09-08T19:40:40.291Z,22.27
2018-09-08T19:43:11.618Z,22.26
2018-09-08T19:45:42.926Z,22.23
2018-09-08T19:48:15.783Z,22.31
2018-09-08T19:50:54.331Z,22.33
2018-09-08T19:53:38.252Z,22.32
2018-09-08T19:56:20.084Z,22.25
2018-09-08T19:58:56.701Z,22.25
2018-09-08T20:01:30.480Z,22.20
2018-09-08T20:04:01.262Z,22.16
2018-09-08T20:06:31.323Z,22.06
2018-09-08T20:09:03.137Z,21.94
2018-09-08T20:11:33.330Z,21.88
2018-09-08T20:14:03.783Z,21.76
2018-09-08T20:16:37.472Z,21.63
2018-09-08T20:19:10.366Z,21.21
2018-09-08T20:21:43.835Z,21.37
2018-09-08T20:24:14.643Z,21.40
2018-09-08T20:26:44.613Z,21.42
2018-09-08T20:32:09.875Z,21.31
2018-09-08T20:34:43.738Z,21.39
2018-09-08T20:37:17.064Z,21.48
2018-09-08T20:39:51.859Z,21.51
2018-09-08T20:42:39.098Z,21.54
2018-09-08T20:45:15.580Z,21.60
2018-09-08T20:47:47.556Z,21.59
2018-09-08T20:50:20.595Z,21.54
2018-09-08T20:52:51.155Z,21.55
2018-09-08T20:55:23.210Z,21.58
2018-09-08T20:57:55.208Z,21.64
2018-09-08T21:00:32.174Z,21.64
2018-09-08T21:03:02.478Z,21.62
2018-09-08T21:05:33.044Z,21.64
2018-09-08T21:08:07.289Z,21.65
2018-09-08T21:10:43.377Z,21.68
2018-09-08T21:13:16.759Z,21.69
2018-09-08T21:16:00.699Z,21.69
2018-09-08T21:18:32.335Z,21.69
2018-09-08T21:21:05.211Z,21.65
2018-09-08T21:23:36.084Z,21.43
2018-09-08T21:26:08.557Z,21.32
2018-09-08T21:28:37.930Z,21.12
2018-09-08T21:31:12.551Z,20.92
2018-09-08T21:33:42.622Z,20.44
2018-09-08T21:36:12.361Z,20.18
2018-09-08T21:38:43.331Z,20.00
2018-09-08T21:41:13.630Z,19.92
2018-09-08T21:43:43.685Z,20.06
2018-09-08T21:46:23.343Z,20.17
2018-09-08T21:48:58.210Z,20.18
2018-09-08T21:51:35.443Z,20.19
2018-09-08T21:54:06.522Z,20.03
2018-09-08T21:56:36.054Z,19.80
2018-09-08T21:59:07.374Z,19.74
2018-09-08T22:01:42.512Z,19.48
2018-09-08T22:04:18.561Z,19.87
2018-09-08T22:06:53.509Z,19.78
2018-09-08T22:09:26.295Z,19.69
2018-09-08T22:11:57.677Z,19.70
2018-09-08T22:14:33.947Z,19.77
2018-09-08T22:17:05.917Z,19.77
2018-09-08T22:19:37.741Z,19.76
2018-09-08T22:22:12.980Z,19.72
2018-09-08T22:24:44.168Z,19.70
2018-09-08T22:27:17.392Z,19.62
2018-09-08T22:32:39.129Z,19.70
2018-09-08T22:35:10.735Z,19.80
2018-09-08T22:37:43.547Z,19.84
2018-09-08T22:40:13.785Z,19.75
2018-09-08T22:42:43.775Z,19.70
2018-09-08T22:45:17.190Z,19.75
2018-09-08T22:47:48.177Z,19.70
2018-09-08T22:50:17.523Z,19.39
2018-09-08T22:52:47.508Z,19.66
2018-09-08T22:55:17.855Z,19.56
2018-09-08T22:57:47.637Z,19.48
2018-09-08T23:00:18.661Z,19.41
2018-09-08T23:02:48.953Z,19.37
2018-09-08T23:05:19.903Z,19.32
2018-09-08T23:07:50.675Z,19.27
2018-09-08T23:10:21.671Z,19.28
2018-09-08T23:12:56.500Z,19.23
2018-09-08T23:15:26.804Z,19.38
2018-09-08T23:17:57.608Z,19.27
2018-09-08T23:20:27.512Z,19.14
2018-09-08T23:23:00.565Z,19.05
2018-09-08T23:25:31.744Z,19.10
2018-09-08T23:28:01.374Z,19.13
2018-09-08T23:30:31.041Z,19.14
2018-09-08T23:33:00.884Z,19.00
2018-09-08T23:35:31.034Z,19.12
2018-09-08T23:38:01.326Z,19.28
2018-09-08T23:40:31.277Z,19.36
2018-09-08T23:43:00.724Z,19.33
2018-09-08T23:45:30.222Z,19.38
2018-09-08T23:47:59.860Z,19.28
2018-09-08T23:50:29.108Z,19.29
2018-09-08T23:52:58.535Z,19.27
2018-09-08T23:55:27.822Z,19.29
2018-09-08T23:57:57.156Z,19.18
